sensor_id;sensor_type;location;lat;lon;timestamp;P1;durP1;ratioP1;P2;durP2;ratioP2
38457;SDS011;24239;48.058;10.486;2024-03-17T00:02:36;4.97;;;2.90;;
38457;SDS011;24239;48.058;10.486;2024-03-17T00:05:22;3.60;;;2.78;;
38457;SDS011;24239;48.058;10.486;2024-03-17T00:08:08;3.17;;;2.88;;
38457;SDS011;24239;48.058;10.486;2024-03-17T00:10:54;4.38;;;3.38;;
38457;SDS011;24239;48.058;10.486;2024-03-17T00:13:42;4.72;;;2.92;;
38457;SDS011;24239;48.058;10.486;2024-03-17T00:16:28;6.28;;;3.22;;
38457;SDS011;24239;48.058;10.486;2024-03-17T00:19:14;6.53;;;3.53;;
38457;SDS011;24239;48.058;10.486;2024-03-17T00:22:02;4.28;;;3.40;;
38457;SDS011;24239;48.058;10.486;2024-03-17T00:24:48;3.15;;;2.70;;
38457;SDS011;24239;48.058;10.486;2024-03-17T00:27:34;3.50;;;3.20;;
38457;SDS011;24239;48.058;10.486;2024-03-17T00:30:24;9.32;;;3.90;;
38457;SDS011;24239;48.058;10.486;2024-03-17T00:33:10;6.05;;;3.45;;
38457;SDS011;24239;48.058;10.486;2024-03-17T00:35:56;4.05;;;3.28;;
38457;SDS011;24239;48.058;10.486;2024-03-17T00:38:45;5.57;;;3.15;;
38457;SDS011;24239;48.058;10.486;2024-03-17T00:41:31;5.97;;;3.72;;
38457;SDS011;24239;48.058;10.486;2024-03-17T00:44:16;3.65;;;2.75;;
38457;SDS011;24239;48.058;10.486;2024-03-17T00:47:02;4.55;;;3.30;;
38457;SDS011;24239;48.058;10.486;2024-03-17T00:49:48;4.93;;;3.22;;
38457;SDS011;24239;48.058;10.486;2024-03-17T00:52:35;5.15;;;3.53;;
38457;SDS011;24239;48.058;10.486;2024-03-17T00:55:21;5.03;;;3.55;;
38457;SDS011;24239;48.058;10.486;2024-03-17T00:58:07;6.18;;;3.92;;
38457;SDS011;24239;48.058;10.486;2024-03-17T01:00:53;5.90;;;4.20;;
38457;SDS011;24239;48.058;10.486;2024-03-17T01:03:39;6.10;;;4.10;;
38457;SDS011;24239;48.058;10.486;2024-03-17T01:06:25;7.63;;;4.32;;
38457;SDS011;24239;48.058;10.486;2024-03-17T01:09:10;5.00;;;4.20;;
38457;SDS011;24239;48.058;10.486;2024-03-17T01:11:56;4.30;;;3.80;;
38457;SDS011;24239;48.058;10.486;2024-03-17T01:14:42;6.72;;;4.22;;
38457;SDS011;24239;48.058;10.486;2024-03-17T01:17:27;8.52;;;5.95;;
38457;SDS011;24239;48.058;10.486;2024-03-17T01:20:14;4.82;;;4.00;;
38457;SDS011;24239;48.058;10.486;2024-03-17T01:23:00;4.82;;;3.88;;
38457;SDS011;24239;48.058;10.486;2024-03-17T01:25:46;6.68;;;4.00;;
38457;SDS011;24239;48.058;10.486;2024-03-17T01:28:31;4.88;;;4.07;;
38457;SDS011;24239;48.058;10.486;2024-03-17T01:31:17;6.32;;;4.80;;
38457;SDS011;24239;48.058;10.486;2024-03-17T01:34:03;8.23;;;5.82;;
38457;SDS011;24239;48.058;10.486;2024-03-17T01:36:49;11.35;;;7.18;;
38457;SDS011;24239;48.058;10.486;2024-03-17T01:39:34;8.57;;;6.70;;
38457;SDS011;24239;48.058;10.486;2024-03-17T01:42:20;8.90;;;6.22;;
38457;SDS011;24239;48.058;10.486;2024-03-17T01:45:48;8.15;;;5.60;;
38457;SDS011;24239;48.058;10.486;2024-03-17T01:48:18;6.70;;;5.30;;
38457;SDS011;24239;48.058;10.486;2024-03-17T01:51:04;10.27;;;6.13;;
38457;SDS011;24239;48.058;10.486;2024-03-17T01:53:50;8.27;;;5.80;;
38457;SDS011;24239;48.058;10.486;2024-03-17T01:56:36;10.32;;;7.13;;
38457;SDS011;24239;48.058;10.486;2024-03-17T01:59:22;8.35;;;5.97;;
38457;SDS011;24239;48.058;10.486;2024-03-17T02:02:07;8.32;;;6.13;;
38457;SDS011;24239;48.058;10.486;2024-03-17T02:04:53;9.68;;;5.75;;
38457;SDS011;24239;48.058;10.486;2024-03-17T02:07:39;10.02;;;6.22;;
38457;SDS011;24239;48.058;10.486;2024-03-17T02:10:25;9.43;;;5.93;;
38457;SDS011;24239;48.058;10.486;2024-03-17T02:13:11;9.77;;;6.07;;
38457;SDS011;24239;48.058;10.486;2024-03-17T02:15:57;9.77;;;6.15;;
38457;SDS011;24239;48.058;10.486;2024-03-17T02:18:43;9.82;;;6.13;;
38457;SDS011;24239;48.058;10.486;2024-03-17T02:21:29;7.65;;;5.40;;
38457;SDS011;24239;48.058;10.486;2024-03-17T02:24:15;10.02;;;5.55;;
38457;SDS011;24239;48.058;10.486;2024-03-17T02:27:01;7.45;;;5.70;;
38457;SDS011;24239;48.058;10.486;2024-03-17T02:29:47;5.82;;;5.18;;
38457;SDS011;24239;48.058;10.486;2024-03-17T02:32:32;7.80;;;4.93;;
38457;SDS011;24239;48.058;10.486;2024-03-17T02:35:19;5.13;;;4.55;;
38457;SDS011;24239;48.058;10.486;2024-03-17T02:38:04;6.25;;;4.95;;
38457;SDS011;24239;48.058;10.486;2024-03-17T02:40:50;6.50;;;4.65;;
38457;SDS011;24239;48.058;10.486;2024-03-17T02:43:36;9.27;;;5.47;;
38457;SDS011;24239;48.058;10.486;2024-03-17T02:46:21;8.18;;;4.97;;
38457;SDS011;24239;48.058;10.486;2024-03-17T02:49:08;6.78;;;4.78;;
38457;SDS011;24239;48.058;10.486;2024-03-17T02:51:59;5.60;;;4.60;;
38457;SDS011;24239;48.058;10.486;2024-03-17T02:54:45;9.02;;;5.05;;
38457;SDS011;24239;48.058;10.486;2024-03-17T02:57:31;5.38;;;4.57;;
38457;SDS011;24239;48.058;10.486;2024-03-17T03:00:17;9.57;;;5.38;;
38457;SDS011;24239;48.058;10.486;2024-03-17T03:03:05;5.32;;;4.47;;
38457;SDS011;24239;48.058;10.486;2024-03-17T03:05:51;5.20;;;4.35;;
38457;SDS011;24239;48.058;10.486;2024-03-17T03:08:41;5.70;;;4.60;;
38457;SDS011;24239;48.058;10.486;2024-03-17T03:11:26;5.00;;;4.45;;
38457;SDS011;24239;48.058;10.486;2024-03-17T03:14:12;6.88;;;4.63;;
38457;SDS011;24239;48.058;10.486;2024-03-17T03:16:58;6.30;;;4.93;;
38457;SDS011;24239;48.058;10.486;2024-03-17T03:19:44;6.20;;;4.20;;
38457;SDS011;24239;48.058;10.486;2024-03-17T03:22:30;6.60;;;5.03;;
38457;SDS011;24239;48.058;10.486;2024-03-17T03:25:15;5.75;;;4.60;;
38457;SDS011;24239;48.058;10.486;2024-03-17T03:28:01;5.65;;;4.40;;
38457;SDS011;24239;48.058;10.486;2024-03-17T03:30:48;4.50;;;4.10;;
38457;SDS011;24239;48.058;10.486;2024-03-17T03:33:33;5.90;;;4.30;;
38457;SDS011;24239;48.058;10.486;2024-03-17T03:36:19;5.45;;;4.35;;
38457;SDS011;24239;48.058;10.486;2024-03-17T03:39:06;7.90;;;4.80;;
38457;SDS011;24239;48.058;10.486;2024-03-17T03:41:56;7.10;;;5.25;;
38457;SDS011;24239;48.058;10.486;2024-03-17T03:44:42;6.22;;;4.57;;
38457;SDS011;24239;48.058;10.486;2024-03-17T03:47:28;6.78;;;4.50;;
38457;SDS011;24239;48.058;10.486;2024-03-17T03:50:14;6.10;;;4.45;;
38457;SDS011;24239;48.058;10.486;2024-03-17T03:53:01;5.57;;;4.57;;
38457;SDS011;24239;48.058;10.486;2024-03-17T03:55:46;5.63;;;5.00;;
38457;SDS011;24239;48.058;10.486;2024-03-17T03:58:35;7.07;;;4.65;;
38457;SDS011;24239;48.058;10.486;2024-03-17T04:01:22;9.50;;;5.82;;
38457;SDS011;24239;48.058;10.486;2024-03-17T04:04:08;7.10;;;4.90;;
38457;SDS011;24239;48.058;10.486;2024-03-17T04:06:53;6.90;;;5.53;;
38457;SDS011;24239;48.058;10.486;2024-03-17T04:09:39;6.82;;;5.72;;
38457;SDS011;24239;48.058;10.486;2024-03-17T04:12:25;6.70;;;5.63;;
38457;SDS011;24239;48.058;10.486;2024-03-17T04:15:11;7.38;;;5.50;;
38457;SDS011;24239;48.058;10.486;2024-03-17T04:17:56;6.07;;;4.85;;
38457;SDS011;24239;48.058;10.486;2024-03-17T04:20:43;6.45;;;5.43;;
38457;SDS011;24239;48.058;10.486;2024-03-17T04:23:28;7.00;;;5.60;;
38457;SDS011;24239;48.058;10.486;2024-03-17T04:26:14;8.75;;;4.95;;
38457;SDS011;24239;48.058;10.486;2024-03-17T04:29:00;6.53;;;5.38;;
38457;SDS011;24239;48.058;10.486;2024-03-17T04:31:46;8.77;;;5.97;;
38457;SDS011;24239;48.058;10.486;2024-03-17T04:34:34;5.47;;;4.80;;
38457;SDS011;24239;48.058;10.486;2024-03-17T04:37:19;6.43;;;4.78;;
38457;SDS011;24239;48.058;10.486;2024-03-17T04:40:06;6.95;;;5.03;;
38457;SDS011;24239;48.058;10.486;2024-03-17T04:42:54;6.35;;;4.90;;
38457;SDS011;24239;48.058;10.486;2024-03-17T04:45:40;6.78;;;4.65;;
38457;SDS011;24239;48.058;10.486;2024-03-17T04:48:26;7.93;;;4.80;;
38457;SDS011;24239;48.058;10.486;2024-03-17T04:51:14;7.72;;;4.60;;
38457;SDS011;24239;48.058;10.486;2024-03-17T04:54:01;7.10;;;4.60;;
38457;SDS011;24239;48.058;10.486;2024-03-17T04:56:52;5.45;;;4.50;;
38457;SDS011;24239;48.058;10.486;2024-03-17T04:59:38;9.38;;;4.40;;
38457;SDS011;24239;48.058;10.486;2024-03-17T05:02:24;5.55;;;4.72;;
38457;SDS011;24239;48.058;10.486;2024-03-17T05:05:10;6.15;;;4.80;;
38457;SDS011;24239;48.058;10.486;2024-03-17T05:07:56;5.50;;;4.70;;
38457;SDS011;24239;48.058;10.486;2024-03-17T05:10:41;4.43;;;3.97;;
38457;SDS011;24239;48.058;10.486;2024-03-17T05:13:27;5.30;;;4.80;;
38457;SDS011;24239;48.058;10.486;2024-03-17T05:16:13;7.57;;;4.75;;
38457;SDS011;24239;48.058;10.486;2024-03-17T05:18:59;9.15;;;5.88;;
38457;SDS011;24239;48.058;10.486;2024-03-17T05:21:45;6.88;;;5.20;;
38457;SDS011;24239;48.058;10.486;2024-03-17T05:24:31;6.78;;;5.18;;
38457;SDS011;24239;48.058;10.486;2024-03-17T05:27:16;6.95;;;4.40;;
38457;SDS011;24239;48.058;10.486;2024-03-17T05:30:02;4.78;;;3.92;;
38457;SDS011;24239;48.058;10.486;2024-03-17T05:32:49;4.55;;;3.92;;
38457;SDS011;24239;48.058;10.486;2024-03-17T05:35:35;6.32;;;4.45;;
38457;SDS011;24239;48.058;10.486;2024-03-17T05:38:21;6.10;;;4.68;;
38457;SDS011;24239;48.058;10.486;2024-03-17T05:41:10;8.35;;;5.45;;
38457;SDS011;24239;48.058;10.486;2024-03-17T05:43:56;8.13;;;4.78;;
38457;SDS011;24239;48.058;10.486;2024-03-17T05:46:43;5.63;;;4.50;;
38457;SDS011;24239;48.058;10.486;2024-03-17T05:49:29;6.93;;;5.18;;
38457;SDS011;24239;48.058;10.486;2024-03-17T05:52:15;5.97;;;5.15;;
38457;SDS011;24239;48.058;10.486;2024-03-17T05:55:00;5.85;;;5.22;;
38457;SDS011;24239;48.058;10.486;2024-03-17T05:57:46;6.10;;;4.63;;
38457;SDS011;24239;48.058;10.486;2024-03-17T06:00:32;5.32;;;4.57;;
38457;SDS011;24239;48.058;10.486;2024-03-17T06:03:17;8.07;;;5.07;;
38457;SDS011;24239;48.058;10.486;2024-03-17T06:06:04;6.40;;;4.85;;
38457;SDS011;24239;48.058;10.486;2024-03-17T06:08:53;9.68;;;4.43;;
38457;SDS011;24239;48.058;10.486;2024-03-17T06:11:38;5.88;;;4.80;;
38457;SDS011;24239;48.058;10.486;2024-03-17T06:14:24;6.57;;;4.88;;
38457;SDS011;24239;48.058;10.486;2024-03-17T06:17:10;6.88;;;5.32;;
38457;SDS011;24239;48.058;10.486;2024-03-17T06:19:56;8.73;;;4.63;;
38457;SDS011;24239;48.058;10.486;2024-03-17T06:22:42;5.63;;;4.50;;
38457;SDS011;24239;48.058;10.486;2024-03-17T06:25:28;4.47;;;4.07;;
38457;SDS011;24239;48.058;10.486;2024-03-17T06:28:14;5.63;;;4.38;;
38457;SDS011;24239;48.058;10.486;2024-03-17T06:31:02;5.35;;;4.20;;
38457;SDS011;24239;48.058;10.486;2024-03-17T06:33:49;6.45;;;3.90;;
38457;SDS011;24239;48.058;10.486;2024-03-17T06:36:34;6.78;;;4.53;;
38457;SDS011;24239;48.058;10.486;2024-03-17T06:39:20;4.35;;;3.95;;
38457;SDS011;24239;48.058;10.486;2024-03-17T06:42:06;9.48;;;4.72;;
38457;SDS011;24239;48.058;10.486;2024-03-17T06:44:54;5.78;;;4.43;;
38457;SDS011;24239;48.058;10.486;2024-03-17T06:47:40;4.78;;;4.22;;
38457;SDS011;24239;48.058;10.486;2024-03-17T06:50:25;4.82;;;4.30;;
38457;SDS011;24239;48.058;10.486;2024-03-17T06:53:11;6.95;;;5.30;;
38457;SDS011;24239;48.058;10.486;2024-03-17T06:55:58;7.32;;;5.65;;
38457;SDS011;24239;48.058;10.486;2024-03-17T06:58:45;7.43;;;5.35;;
38457;SDS011;24239;48.058;10.486;2024-03-17T07:01:30;6.07;;;4.72;;
38457;SDS011;24239;48.058;10.486;2024-03-17T07:04:16;5.57;;;4.97;;
38457;SDS011;24239;48.058;10.486;2024-03-17T07:07:02;7.60;;;5.68;;
38457;SDS011;24239;48.058;10.486;2024-03-17T07:09:48;6.57;;;4.85;;
38457;SDS011;24239;48.058;10.486;2024-03-17T07:12:33;5.10;;;4.60;;
38457;SDS011;24239;48.058;10.486;2024-03-17T07:15:19;5.28;;;3.97;;
38457;SDS011;24239;48.058;10.486;2024-03-17T07:18:05;5.40;;;4.15;;
38457;SDS011;24239;48.058;10.486;2024-03-17T07:20:51;4.68;;;4.18;;
38457;SDS011;24239;48.058;10.486;2024-03-17T07:23:36;6.88;;;4.40;;
38457;SDS011;24239;48.058;10.486;2024-03-17T07:26:23;6.32;;;4.38;;
38457;SDS011;24239;48.058;10.486;2024-03-17T07:29:08;6.15;;;4.15;;
38457;SDS011;24239;48.058;10.486;2024-03-17T07:31:54;6.22;;;4.40;;
38457;SDS011;24239;48.058;10.486;2024-03-17T07:34:40;5.80;;;4.43;;
38457;SDS011;24239;48.058;10.486;2024-03-17T07:37:25;7.57;;;5.00;;
38457;SDS011;24239;48.058;10.486;2024-03-17T07:40:11;6.30;;;5.00;;
38457;SDS011;24239;48.058;10.486;2024-03-17T07:42:57;7.63;;;4.95;;
38457;SDS011;24239;48.058;10.486;2024-03-17T07:45:42;6.70;;;4.80;;
38457;SDS011;24239;48.058;10.486;2024-03-17T07:48:32;8.50;;;4.70;;
38457;SDS011;24239;48.058;10.486;2024-03-17T07:51:18;5.55;;;4.45;;
38457;SDS011;24239;48.058;10.486;2024-03-17T07:54:05;4.93;;;4.43;;
38457;SDS011;24239;48.058;10.486;2024-03-17T07:56:51;5.53;;;4.20;;
38457;SDS011;24239;48.058;10.486;2024-03-17T07:59:37;5.03;;;4.00;;
38457;SDS011;24239;48.058;10.486;2024-03-17T08:02:23;5.32;;;4.07;;
38457;SDS011;24239;48.058;10.486;2024-03-17T08:05:09;5.18;;;4.05;;
38457;SDS011;24239;48.058;10.486;2024-03-17T08:07:55;4.95;;;4.30;;
38457;SDS011;24239;48.058;10.486;2024-03-17T08:10:41;5.45;;;3.40;;
38457;SDS011;24239;48.058;10.486;2024-03-17T08:13:27;4.53;;;3.85;;
38457;SDS011;24239;48.058;10.486;2024-03-17T08:16:14;3.97;;;3.55;;
38457;SDS011;24239;48.058;10.486;2024-03-17T08:19:01;4.78;;;3.33;;
38457;SDS011;24239;48.058;10.486;2024-03-17T08:21:46;5.28;;;3.80;;
38457;SDS011;24239;48.058;10.486;2024-03-17T08:24:32;6.57;;;3.97;;
38457;SDS011;24239;48.058;10.486;2024-03-17T08:27:18;4.30;;;3.63;;
38457;SDS011;24239;48.058;10.486;2024-03-17T08:30:04;4.90;;;3.92;;
38457;SDS011;24239;48.058;10.486;2024-03-17T08:32:50;3.85;;;3.28;;
38457;SDS011;24239;48.058;10.486;2024-03-17T08:35:36;4.20;;;3.17;;
38457;SDS011;24239;48.058;10.486;2024-03-17T08:38:22;4.68;;;3.35;;
38457;SDS011;24239;48.058;10.486;2024-03-17T08:41:09;7.10;;;3.33;;
38457;SDS011;24239;48.058;10.486;2024-03-17T08:43:55;6.28;;;3.70;;
38457;SDS011;24239;48.058;10.486;2024-03-17T08:46:41;3.42;;;3.05;;
38457;SDS011;24239;48.058;10.486;2024-03-17T08:49:26;6.75;;;3.60;;
38457;SDS011;24239;48.058;10.486;2024-03-17T08:52:12;4.93;;;3.30;;
38457;SDS011;24239;48.058;10.486;2024-03-17T08:54:58;8.27;;;3.30;;
38457;SDS011;24239;48.058;10.486;2024-03-17T08:57:44;4.13;;;2.63;;
38457;SDS011;24239;48.058;10.486;2024-03-17T09:00:29;4.32;;;2.65;;
38457;SDS011;24239;48.058;10.486;2024-03-17T09:03:17;3.15;;;2.28;;
38457;SDS011;24239;48.058;10.486;2024-03-17T09:06:03;4.63;;;2.92;;
38457;SDS011;24239;48.058;10.486;2024-03-17T09:08:49;3.42;;;2.75;;
38457;SDS011;24239;48.058;10.486;2024-03-17T09:11:35;8.70;;;3.20;;
38457;SDS011;24239;48.058;10.486;2024-03-17T09:14:20;5.13;;;2.90;;
38457;SDS011;24239;48.058;10.486;2024-03-17T09:17:07;4.18;;;2.67;;
38457;SDS011;24239;48.058;10.486;2024-03-17T09:19:52;6.57;;;2.58;;
38457;SDS011;24239;48.058;10.486;2024-03-17T09:22:38;4.45;;;2.67;;
38457;SDS011;24239;48.058;10.486;2024-03-17T09:25:24;3.85;;;2.60;;
38457;SDS011;24239;48.058;10.486;2024-03-17T09:28:10;5.45;;;2.88;;
38457;SDS011;24239;48.058;10.486;2024-03-17T09:30:57;4.95;;;2.70;;
38457;SDS011;24239;48.058;10.486;2024-03-17T09:33:43;3.85;;;2.47;;
38457;SDS011;24239;48.058;10.486;2024-03-17T09:36:29;6.65;;;2.53;;
38457;SDS011;24239;48.058;10.486;2024-03-17T09:39:16;4.47;;;2.03;;
38457;SDS011;24239;48.058;10.486;2024-03-17T09:42:02;5.13;;;2.13;;
38457;SDS011;24239;48.058;10.486;2024-03-17T09:44:48;2.83;;;1.90;;
38457;SDS011;24239;48.058;10.486;2024-03-17T09:47:37;4.20;;;2.30;;
38457;SDS011;24239;48.058;10.486;2024-03-17T09:50:23;4.30;;;2.03;;
38457;SDS011;24239;48.058;10.486;2024-03-17T09:53:11;3.75;;;2.40;;
38457;SDS011;24239;48.058;10.486;2024-03-17T09:56:19;5.32;;;2.22;;
38457;SDS011;24239;48.058;10.486;2024-03-17T09:59:05;2.58;;;1.92;;
38457;SDS011;24239;48.058;10.486;2024-03-17T10:01:51;5.47;;;2.45;;
38457;SDS011;24239;48.058;10.486;2024-03-17T10:04:37;4.28;;;2.05;;
38457;SDS011;24239;48.058;10.486;2024-03-17T10:07:37;4.80;;;2.15;;
38457;SDS011;24239;48.058;10.486;2024-03-17T10:10:23;3.42;;;2.00;;
38457;SDS011;24239;48.058;10.486;2024-03-17T10:13:11;4.72;;;2.33;;
38457;SDS011;24239;48.058;10.486;2024-03-17T10:15:57;5.20;;;2.05;;
38457;SDS011;24239;48.058;10.486;2024-03-17T10:18:43;4.50;;;1.88;;
38457;SDS011;24239;48.058;10.486;2024-03-17T10:21:29;6.97;;;2.40;;
38457;SDS011;24239;48.058;10.486;2024-03-17T10:24:19;5.82;;;2.10;;
38457;SDS011;24239;48.058;10.486;2024-03-17T10:27:06;4.53;;;1.90;;
38457;SDS011;24239;48.058;10.486;2024-03-17T10:29:56;3.55;;;2.00;;
38457;SDS011;24239;48.058;10.486;2024-03-17T10:32:42;3.88;;;2.00;;
38457;SDS011;24239;48.058;10.486;2024-03-17T10:38:20;4.28;;;2.20;;
38457;SDS011;24239;48.058;10.486;2024-03-17T10:41:06;8.20;;;2.20;;
38457;SDS011;24239;48.058;10.486;2024-03-17T10:43:51;4.80;;;1.92;;
38457;SDS011;24239;48.058;10.486;2024-03-17T10:46:38;3.53;;;1.92;;
38457;SDS011;24239;48.058;10.486;2024-03-17T10:49:34;4.10;;;1.95;;
38457;SDS011;24239;48.058;10.486;2024-03-17T10:52:21;4.63;;;1.98;;
38457;SDS011;24239;48.058;10.486;2024-03-17T10:55:08;2.80;;;1.60;;
38457;SDS011;24239;48.058;10.486;2024-03-17T10:57:54;2.95;;;1.75;;
38457;SDS011;24239;48.058;10.486;2024-03-17T11:00:43;3.10;;;1.70;;
38457;SDS011;24239;48.058;10.486;2024-03-17T11:03:32;5.80;;;1.90;;
38457;SDS011;24239;48.058;10.486;2024-03-17T11:06:18;2.45;;;1.40;;
38457;SDS011;24239;48.058;10.486;2024-03-17T11:09:04;3.72;;;1.80;;
38457;SDS011;24239;48.058;10.486;2024-03-17T11:11:53;5.30;;;1.70;;
38457;SDS011;24239;48.058;10.486;2024-03-17T11:14:39;6.80;;;1.67;;
38457;SDS011;24239;48.058;10.486;2024-03-17T11:17:24;3.70;;;1.60;;
38457;SDS011;24239;48.058;10.486;2024-03-17T11:20:23;5.90;;;2.20;;
38457;SDS011;24239;48.058;10.486;2024-03-17T11:23:10;6.03;;;2.00;;
38457;SDS011;24239;48.058;10.486;2024-03-17T11:26:11;4.07;;;1.67;;
38457;SDS011;24239;48.058;10.486;2024-03-17T11:29:26;3.45;;;1.83;;
38457;SDS011;24239;48.058;10.486;2024-03-17T11:32:25;5.17;;;1.70;;
38457;SDS011;24239;48.058;10.486;2024-03-17T11:35:13;2.33;;;1.42;;
38457;SDS011;24239;48.058;10.486;2024-03-17T11:37:59;5.20;;;1.67;;
38457;SDS011;24239;48.058;10.486;2024-03-17T11:40:45;3.00;;;1.85;;
38457;SDS011;24239;48.058;10.486;2024-03-17T11:43:30;5.70;;;1.45;;
38457;SDS011;24239;48.058;10.486;2024-03-17T11:46:16;5.13;;;1.48;;
38457;SDS011;24239;48.058;10.486;2024-03-17T11:49:03;3.35;;;1.40;;
38457;SDS011;24239;48.058;10.486;2024-03-17T11:51:50;7.00;;;1.50;;
38457;SDS011;24239;48.058;10.486;2024-03-17T11:54:37;6.57;;;1.38;;
38457;SDS011;24239;48.058;10.486;2024-03-17T11:57:24;3.75;;;1.42;;
38457;SDS011;24239;48.058;10.486;2024-03-17T12:00:22;4.10;;;1.67;;
38457;SDS011;24239;48.058;10.486;2024-03-17T12:03:10;5.88;;;2.35;;
38457;SDS011;24239;48.058;10.486;2024-03-17T12:05:56;5.45;;;2.22;;
38457;SDS011;24239;48.058;10.486;2024-03-17T12:08:42;5.15;;;1.70;;
38457;SDS011;24239;48.058;10.486;2024-03-17T12:11:28;5.88;;;1.67;;
38457;SDS011;24239;48.058;10.486;2024-03-17T12:14:23;4.13;;;1.45;;
38457;SDS011;24239;48.058;10.486;2024-03-17T12:17:11;3.38;;;1.52;;
38457;SDS011;24239;48.058;10.486;2024-03-17T12:19:59;2.58;;;1.30;;
38457;SDS011;24239;48.058;10.486;2024-03-17T12:22:46;3.55;;;1.52;;
38457;SDS011;24239;48.058;10.486;2024-03-17T12:25:32;3.00;;;1.40;;
38457;SDS011;24239;48.058;10.486;2024-03-17T12:28:18;6.28;;;1.52;;
38457;SDS011;24239;48.058;10.486;2024-03-17T12:31:04;5.57;;;1.60;;
38457;SDS011;24239;48.058;10.486;2024-03-17T12:33:51;8.65;;;1.52;;
38457;SDS011;24239;48.058;10.486;2024-03-17T12:36:37;4.03;;;1.52;;
38457;SDS011;24239;48.058;10.486;2024-03-17T12:42:14;5.28;;;1.50;;
38457;SDS011;24239;48.058;10.486;2024-03-17T12:45:02;3.30;;;1.48;;
38457;SDS011;24239;48.058;10.486;2024-03-17T12:47:49;3.92;;;1.50;;
38457;SDS011;24239;48.058;10.486;2024-03-17T12:50:36;4.72;;;2.00;;
38457;SDS011;24239;48.058;10.486;2024-03-17T12:53:22;4.15;;;1.60;;
38457;SDS011;24239;48.058;10.486;2024-03-17T12:56:08;3.47;;;1.70;;
38457;SDS011;24239;48.058;10.486;2024-03-17T12:59:12;5.07;;;1.92;;
38457;SDS011;24239;48.058;10.486;2024-03-17T13:02:16;2.65;;;1.23;;
38457;SDS011;24239;48.058;10.486;2024-03-17T13:05:20;5.78;;;1.92;;
38457;SDS011;24239;48.058;10.486;2024-03-17T13:08:06;5.10;;;1.42;;
38457;SDS011;24239;48.058;10.486;2024-03-17T13:10:56;6.10;;;1.85;;
38457;SDS011;24239;48.058;10.486;2024-03-17T13:13:42;5.65;;;1.42;;
38457;SDS011;24239;48.058;10.486;2024-03-17T13:16:28;4.47;;;1.50;;
38457;SDS011;24239;48.058;10.486;2024-03-17T13:19:15;17.13;;;2.95;;
38457;SDS011;24239;48.058;10.486;2024-03-17T13:22:01;6.65;;;1.77;;
38457;SDS011;24239;48.058;10.486;2024-03-17T13:24:46;2.70;;;1.52;;
38457;SDS011;24239;48.058;10.486;2024-03-17T13:27:32;4.45;;;1.90;;
38457;SDS011;24239;48.058;10.486;2024-03-17T13:30:19;5.88;;;1.50;;
38457;SDS011;24239;48.058;10.486;2024-03-17T13:33:07;5.25;;;1.85;;
38457;SDS011;24239;48.058;10.486;2024-03-17T13:35:56;2.53;;;1.60;;
38457;SDS011;24239;48.058;10.486;2024-03-17T13:38:42;3.92;;;1.50;;
38457;SDS011;24239;48.058;10.486;2024-03-17T13:41:28;3.92;;;1.38;;
38457;SDS011;24239;48.058;10.486;2024-03-17T13:44:13;3.90;;;1.63;;
38457;SDS011;24239;48.058;10.486;2024-03-17T13:46:59;3.20;;;1.80;;
38457;SDS011;24239;48.058;10.486;2024-03-17T13:49:48;5.25;;;1.83;;
38457;SDS011;24239;48.058;10.486;2024-03-17T13:52:37;5.40;;;1.48;;
38457;SDS011;24239;48.058;10.486;2024-03-17T13:55:24;3.90;;;1.30;;
38457;SDS011;24239;48.058;10.486;2024-03-17T13:58:10;7.10;;;1.55;;
38457;SDS011;24239;48.058;10.486;2024-03-17T14:00:57;4.22;;;1.60;;
38457;SDS011;24239;48.058;10.486;2024-03-17T14:03:43;4.20;;;1.50;;
38457;SDS011;24239;48.058;10.486;2024-03-17T14:06:29;4.03;;;1.35;;
38457;SDS011;24239;48.058;10.486;2024-03-17T14:09:15;8.38;;;1.73;;
38457;SDS011;24239;48.058;10.486;2024-03-17T14:12:03;4.47;;;1.45;;
38457;SDS011;24239;48.058;10.486;2024-03-17T14:14:49;4.35;;;1.58;;
38457;SDS011;24239;48.058;10.486;2024-03-17T14:17:34;4.78;;;1.70;;
38457;SDS011;24239;48.058;10.486;2024-03-17T14:20:20;6.32;;;1.77;;
38457;SDS011;24239;48.058;10.486;2024-03-17T14:23:06;3.78;;;1.50;;
38457;SDS011;24239;48.058;10.486;2024-03-17T14:25:51;5.00;;;1.63;;
38457;SDS011;24239;48.058;10.486;2024-03-17T14:28:37;4.18;;;1.45;;
38457;SDS011;24239;48.058;10.486;2024-03-17T14:31:23;6.47;;;1.38;;
38457;SDS011;24239;48.058;10.486;2024-03-17T14:34:09;4.30;;;1.52;;
38457;SDS011;24239;48.058;10.486;2024-03-17T14:36:56;4.97;;;1.80;;
38457;SDS011;24239;48.058;10.486;2024-03-17T14:39:42;3.33;;;1.45;;
38457;SDS011;24239;48.058;10.486;2024-03-17T14:42:27;14.63;;;5.18;;
38457;SDS011;24239;48.058;10.486;2024-03-17T14:45:13;14.48;;;6.07;;
38457;SDS011;24239;48.058;10.486;2024-03-17T14:47:59;25.27;;;11.52;;
38457;SDS011;24239;48.058;10.486;2024-03-17T14:50:45;21.73;;;9.45;;
38457;SDS011;24239;48.058;10.486;2024-03-17T14:53:31;19.60;;;11.15;;
38457;SDS011;24239;48.058;10.486;2024-03-17T14:56:17;5.45;;;3.00;;
38457;SDS011;24239;48.058;10.486;2024-03-17T14:59:03;4.38;;;1.60;;
38457;SDS011;24239;48.058;10.486;2024-03-17T15:01:48;6.13;;;1.60;;
38457;SDS011;24239;48.058;10.486;2024-03-17T15:04:34;3.17;;;1.73;;
38457;SDS011;24239;48.058;10.486;2024-03-17T15:07:20;7.25;;;1.38;;
38457;SDS011;24239;48.058;10.486;2024-03-17T15:10:09;3.38;;;1.40;;
38457;SDS011;24239;48.058;10.486;2024-03-17T15:12:54;4.43;;;1.60;;
38457;SDS011;24239;48.058;10.486;2024-03-17T15:15:40;7.65;;;2.00;;
38457;SDS011;24239;48.058;10.486;2024-03-17T15:18:26;6.03;;;2.13;;
38457;SDS011;24239;48.058;10.486;2024-03-17T15:21:12;7.13;;;3.70;;
38457;SDS011;24239;48.058;10.486;2024-03-17T15:23:58;12.27;;;2.95;;
38457;SDS011;24239;48.058;10.486;2024-03-17T15:26:44;8.60;;;3.08;;
38457;SDS011;24239;48.058;10.486;2024-03-17T15:29:30;8.07;;;3.25;;
38457;SDS011;24239;48.058;10.486;2024-03-17T15:32:16;19.58;;;5.47;;
38457;SDS011;24239;48.058;10.486;2024-03-17T15:35:02;9.65;;;2.47;;
38457;SDS011;24239;48.058;10.486;2024-03-17T15:37:48;4.75;;;1.60;;
38457;SDS011;24239;48.058;10.486;2024-03-17T15:40:34;5.28;;;2.10;;
38457;SDS011;24239;48.058;10.486;2024-03-17T15:43:20;9.27;;;3.90;;
38457;SDS011;24239;48.058;10.486;2024-03-17T15:46:06;8.70;;;1.75;;
38457;SDS011;24239;48.058;10.486;2024-03-17T15:49:03;6.18;;;1.75;;
38457;SDS011;24239;48.058;10.486;2024-03-17T15:51:49;4.65;;;1.40;;
38457;SDS011;24239;48.058;10.486;2024-03-17T15:54:35;2.70;;;1.30;;
38457;SDS011;24239;48.058;10.486;2024-03-17T15:57:20;5.65;;;1.27;;
38457;SDS011;24239;48.058;10.486;2024-03-17T16:00:07;5.55;;;2.00;;
38457;SDS011;24239;48.058;10.486;2024-03-17T16:02:54;7.13;;;3.08;;
38457;SDS011;24239;48.058;10.486;2024-03-17T16:05:41;50.10;;;20.60;;
38457;SDS011;24239;48.058;10.486;2024-03-17T16:08:27;30.45;;;12.05;;
38457;SDS011;24239;48.058;10.486;2024-03-17T16:11:15;22.90;;;9.85;;
38457;SDS011;24239;48.058;10.486;2024-03-17T16:14:02;20.55;;;8.85;;
38457;SDS011;24239;48.058;10.486;2024-03-17T16:16:48;18.10;;;8.07;;
38457;SDS011;24239;48.058;10.486;2024-03-17T16:19:34;10.65;;;4.13;;
38457;SDS011;24239;48.058;10.486;2024-03-17T16:22:20;6.75;;;2.72;;
38457;SDS011;24239;48.058;10.486;2024-03-17T16:25:06;6.32;;;2.80;;
38457;SDS011;24239;48.058;10.486;2024-03-17T16:27:52;6.35;;;2.08;;
38457;SDS011;24239;48.058;10.486;2024-03-17T16:30:39;4.10;;;2.58;;
38457;SDS011;24239;48.058;10.486;2024-03-17T16:33:25;5.22;;;2.65;;
38457;SDS011;24239;48.058;10.486;2024-03-17T16:36:12;43.17;;;17.95;;